Time;durP1;ratioP1;P1;durP2;ratioP2;P2;SDS_P1;SDS_P2;PMS_P1;PMS_P2;Temp;Humidity;BMP_temperature;BMP_pressure;BME280_temperature;BME280_humidity;BME280_pressure;Samples;Min_cycle;Max_cycle;Signal;HPM_P1;HPM_P2
2023/08/19 00:00:23;;;;;;;9.00;6.30;;;;;;;26.84;56.43;99644.63;4327774;33;33117;-75
2023/08/19 00:02:51;;;;;;;10.05;6.00;;;;;;;26.82;56.45;99644.84;4325503;33;33631;-72
2023/08/19 00:05:20;;;;;;;9.88;6.43;;;;;;;26.74;56.83;99636.03;4328971;33;33872;-73
2023/08/19 00:07:47;;;;;;;10.10;6.18;;;;;;;26.72;56.82;99641.75;4325737;33;33872;-72
2023/08/19 00:10:15;;;;;;;8.75;5.50;;;;;;;26.71;56.88;99643.66;4323108;33;34988;-72
2023/08/19 00:12:43;;;;;;;7.65;5.43;;;;;;;26.77;56.90;99641.06;4326841;33;34274;-71
2023/08/19 00:15:10;;;;;;;8.88;5.47;;;;;;;26.84;56.58;99639.97;4321500;33;33997;-72
2023/08/19 00:17:38;;;;;;;7.72;5.07;;;;;;;26.83;56.58;99646.50;4320919;33;34755;-72
2023/08/19 00:20:07;;;;;;;9.32;5.87;;;;;;;26.79;56.52;99645.28;4329052;33;32420;-72
2023/08/19 00:22:35;;;;;;;7.85;5.45;;;;;;;26.66;56.85;99640.72;4327059;33;34740;-72
2023/08/19 00:25:04;;;;;;;8.43;5.28;;;;;;;26.76;56.67;99644.91;4330438;33;34915;-72
2023/08/19 00:27:31;;;;;;;10.07;6.57;;;;;;;26.75;56.87;99644.06;4331194;33;34787;-75
2023/08/19 00:29:59;;;;;;;9.30;5.22;;;;;;;26.78;56.88;99642.78;4322607;33;32721;-75
2023/08/19 00:32:27;;;;;;;8.38;5.43;;;;;;;26.77;56.91;99654.81;4331137;33;35547;-71
2023/08/19 00:34:55;;;;;;;12.27;5.45;;;;;;;26.69;57.06;99651.28;4326095;33;33702;-72
2023/08/19 00:37:22;;;;;;;13.27;7.20;;;;;;;26.64;57.08;99644.75;4330700;33;36118;-73
2023/08/19 00:39:51;;;;;;;9.98;6.18;;;;;;;26.63;57.08;99649.41;4327311;33;33641;-72
2023/08/19 00:42:18;;;;;;;7.90;4.85;;;;;;;26.57;57.20;99647.53;4326550;33;33526;-73
2023/08/19 00:44:46;;;;;;;9.23;5.57;;;;;;;26.59;57.14;99641.84;4328417;33;35326;-72
2023/08/19 00:47:14;;;;;;;7.78;4.75;;;;;;;26.58;57.25;99642.91;4329016;33;33656;-73
2023/08/19 00:49:42;;;;;;;8.23;5.82;;;;;;;26.37;57.89;99633.09;4329367;33;33275;-72
2023/08/19 00:52:09;;;;;;;7.93;5.65;;;;;;;26.45;57.70;99639.16;4319781;33;34951;-71
2023/08/19 00:54:37;;;;;;;9.38;5.60;;;;;;;26.50;57.52;99635.78;4324739;33;33813;-72
2023/08/19 00:57:04;;;;;;;9.52;6.28;;;;;;;26.47;57.65;99634.28;4328268;33;33660;-72
2023/08/19 00:59:32;;;;;;;10.15;5.97;;;;;;;26.52;57.60;99632.81;4326770;33;32816;-72
2023/08/19 01:02:00;;;;;;;8.00;6.03;;;;;;;26.45;57.77;99639.16;4315798;33;33636;-72
2023/08/19 01:04:28;;;;;;;7.78;5.22;;;;;;;26.12;58.94;99635.75;4331265;33;33900;-72
2023/08/19 01:07:12;;;;;;;9.85;6.07;;;;;;;26.22;58.61;99638.84;4324036;33;34694;-72
2023/08/19 01:09:48;;;;;;;10.25;7.22;;;;;;;26.24;58.62;99636.75;4326734;33;31698;-73
2023/08/19 01:12:39;;;;;;;;;;;;;;;26.08;59.00;99643.59;4317678;33;33163;-73
2023/08/19 01:15:21;;;;;;;11.07;7.82;;;;;;;26.07;59.05;99649.25;4300555;33;33884;-71
2023/08/19 01:17:50;;;;;;;8.68;5.57;;;;;;;26.01;59.16;99654.59;4309500;33;34510;-71
2023/08/19 01:20:21;;;;;;;8.80;5.80;;;;;;;26.00;59.20;99655.66;4305201;33;33259;-72
2023/08/19 01:22:56;;;;;;;8.48;5.60;;;;;;;25.93;59.35;99649.31;4307665;33;34965;-71
2023/08/19 01:25:25;;;;;;;7.60;5.35;;;;;;;25.84;59.61;99645.13;4302449;33;34699;-73
2023/08/19 01:27:53;;;;;;;11.12;6.57;;;;;;;25.92;59.44;99655.03;4307861;33;33780;-71
2023/08/19 01:30:22;;;;;;;8.63;6.65;;;;;;;25.97;59.26;99653.34;4305649;33;33073;-71
2023/08/19 01:32:50;;;;;;;14.23;6.70;;;;;;;26.00;59.05;99652.03;4302048;33;34970;-71
2023/08/19 01:35:17;;;;;;;10.52;5.60;;;;;;;25.87;59.40;99652.09;4307338;33;35275;-71
2023/08/19 01:38:09;;;;;;;10.38;6.82;;;;;;;25.79;59.47;99659.47;4314113;33;33554;-71
2023/08/19 01:40:39;;;;;;;9.57;6.25;;;;;;;25.83;59.46;99664.56;4303199;33;33021;-71
2023/08/19 01:43:10;;;;;;;7.65;5.90;;;;;;;25.66;59.98;99664.16;4310106;33;33973;-71
2023/08/19 01:45:39;;;;;;;11.40;6.20;;;;;;;25.71;59.83;99661.59;4311953;33;34342;-71
2023/08/19 01:48:07;;;;;;;10.18;5.97;;;;;;;25.68;59.84;99668.38;4299116;33;34619;-71
2023/08/19 01:50:34;;;;;;;10.88;6.90;;;;;;;25.80;59.51;99663.06;4304643;33;32982;-71
2023/08/19 01:53:02;;;;;;;8.43;6.25;;;;;;;25.77;59.63;99667.06;4324135;33;33709;-73
2023/08/19 01:55:30;;;;;;;8.63;6.70;;;;;;;25.81;59.60;99669.41;4328557;33;34329;-73
2023/08/19 01:57:57;;;;;;;8.27;6.15;;;;;;;25.83;59.50;99662.66;4325906;33;35102;-71
2023/08/19 02:00:25;;;;;;;7.78;5.03;;;;;;;25.79;59.51;99661.38;4328309;33;33291;-71
2023/08/19 02:02:52;;;;;;;8.95;5.10;;;;;;;25.84;59.35;99666.22;4330515;33;33974;-71
2023/08/19 02:05:20;;;;;;;8.90;5.22;;;;;;;25.85;59.25;99656.97;4317923;33;34171;-73
2023/08/19 02:07:48;;;;;;;8.05;4.68;;;;;;;25.86;59.18;99661.38;4321563;33;33572;-74
2023/08/19 02:10:15;;;;;;;8.57;4.40;;;;;;;25.90;59.02;99657.97;4327278;33;34094;-74
2023/08/19 02:12:43;;;;;;;7.28;4.90;;;;;;;25.95;58.99;99660.09;4328953;33;33659;-74
2023/08/19 02:15:11;;;;;;;10.52;6.55;;;;;;;25.90;59.02;99663.47;4324306;33;34052;-74
2023/08/19 02:17:38;;;;;;;8.48;5.72;;;;;;;25.92;58.95;99666.00;4317846;33;33682;-71
2023/08/19 02:20:07;;;;;;;7.50;5.12;;;;;;;25.81;59.28;99662.06;4318716;33;33093;-72
2023/08/19 02:22:36;;;;;;;13.45;6.00;;;;;;;25.78;59.25;99668.75;4328429;33;33859;-74
2023/08/19 02:25:04;;;;;;;7.72;4.97;;;;;;;25.82;59.19;99665.63;4328736;33;33933;-75
2023/08/19 02:27:32;;;;;;;10.90;5.68;;;;;;;25.81;59.28;99662.06;4327495;33;33206;-75
2023/08/19 02:30:00;;;;;;;8.60;5.25;;;;;;;25.73;59.46;99657.59;4325235;33;33018;-73
2023/08/19 02:32:28;;;;;;;11.20;6.20;;;;;;;25.76;59.32;99651.69;4328478;33;34108;-75
2023/08/19 02:34:56;;;;;;;9.95;6.65;;;;;;;25.72;59.39;99655.91;4336963;33;33771;-74
2023/08/19 02:37:24;;;;;;;9.88;5.45;;;;;;;25.61;59.83;99648.34;4332274;33;34783;-75
2023/08/19 02:39:52;;;;;;;9.27;5.37;;;;;;;25.67;59.71;99652.13;4333422;33;32954;-74
2023/08/19 02:42:19;;;;;;;9.20;6.18;;;;;;;25.69;59.59;99650.87;4323861;33;33451;-73
2023/08/19 02:44:47;;;;;;;8.85;6.10;;;;;;;25.69;59.55;99644.56;4329844;33;34179;-75
2023/08/19 02:47:14;;;;;;;12.07;5.03;;;;;;;25.57;59.74;99636.13;4327864;33;33679;-75
2023/08/19 02:49:43;;;;;;;7.53;5.28;;;;;;;25.52;59.78;99644.16;4328359;33;34900;-72
2023/08/19 02:52:11;;;;;;;11.48;4.80;;;;;;;25.57;59.61;99636.13;4318382;33;33628;-73
2023/08/19 02:54:38;;;;;;;13.43;5.53;;;;;;;25.56;59.61;99638.03;4323913;33;34217;-73
2023/08/19 02:57:06;;;;;;;9.38;7.07;;;;;;;25.57;59.63;99638.88;4327252;33;33740;-73
2023/08/19 02:59:33;;;;;;;8.48;5.82;;;;;;;25.49;59.80;99626.25;4322738;33;34466;-73
2023/08/19 03:02:01;;;;;;;10.23;5.20;;;;;;;25.42;59.95;99628.16;4327446;33;35228;-73
2023/08/19 03:04:29;;;;;;;7.25;3.95;;;;;;;25.37;60.06;99624.41;4319790;33;33768;-71
2023/08/19 03:06:58;;;;;;;7.75;5.47;;;;;;;25.42;59.77;99611.72;4327987;33;33635;-72
2023/08/19 03:09:25;;;;;;;8.90;5.22;;;;;;;25.38;59.73;99617.84;4330832;33;33256;-72
2023/08/19 03:11:53;;;;;;;9.68;6.28;;;;;;;25.39;59.62;99616.78;4324075;33;33601;-72
2023/08/19 03:14:21;;;;;;;8.05;4.82;;;;;;;25.31;59.80;99615.13;4331999;33;33786;-72
2023/08/19 03:16:49;;;;;;;8.68;4.95;;;;;;;25.29;59.81;99623.53;4325838;33;33602;-71
2023/08/19 03:19:19;;;;;;;7.53;4.72;;;;;;;25.24;60.03;99625.25;4324412;33;34199;-73
2023/08/19 03:21:48;;;;;;;10.38;5.85;;;;;;;25.16;60.54;99625.47;4326824;33;33607;-72
2023/08/19 03:24:16;;;;;;;10.25;5.00;;;;;;;25.16;60.69;99633.69;4328434;33;33779;-73
2023/08/19 03:26:44;;;;;;;8.68;6.65;;;;;;;25.19;60.43;99627.78;4327528;33;34924;-72
2023/08/19 03:29:12;;;;;;;7.47;4.70;;;;;;;25.13;60.59;99629.47;4326589;33;33096;-72
2023/08/19 03:31:40;;;;;;;8.55;5.32;;;;;;;25.08;60.60;99624.59;4331822;33;33875;-72
2023/08/19 03:34:07;;;;;;;8.70;5.35;;;;;;;24.85;61.45;99646.09;4325802;33;34667;-73
2023/08/19 03:36:35;;;;;;;9.38;5.15;;;;;;;24.90;61.50;99639.97;4325323;33;34206;-72
2023/08/19 03:39:03;;;;;;;8.68;5.68;;;;;;;24.82;61.67;99644.63;4332090;33;33122;-72
2023/08/19 03:41:30;;;;;;;7.57;5.18;;;;;;;24.97;61.14;99638.91;4329030;33;34021;-72
2023/08/19 03:43:58;;;;;;;8.82;5.65;;;;;;;24.98;61.26;99637.03;4330925;33;35480;-72
2023/08/19 03:46:26;;;;;;;11.35;5.35;;;;;;;25.04;61.19;99636.19;4331898;33;33716;-73
2023/08/19 03:48:54;;;;;;;7.53;4.97;;;;;;;25.14;60.96;99644.88;4331197;33;32824;-73
2023/08/19 03:51:21;;;;;;;8.18;5.25;;;;;;;25.20;60.76;99649.50;4330449;33;34860;-72
2023/08/19 03:53:49;;;;;;;7.87;6.32;;;;;;;25.25;60.45;99648.84;4331019;33;33849;-72
2023/08/19 03:56:16;;;;;;;8.55;5.50;;;;;;;25.25;60.47;99652.41;4326533;33;33870;-73
2023/08/19 03:58:47;;;;;;;8.38;7.20;;;;;;;25.30;60.33;99654.53;4322338;33;33556;-73
2023/08/19 04:01:15;;;;;;;9.32;6.57;;;;;;;25.33;60.14;99659.59;4320097;33;33790;-72
2023/08/19 04:03:44;;;;;;;6.95;4.68;;;;;;;25.34;60.10;99658.53;4316547;33;33599;-72
2023/08/19 04:06:11;;;;;;;7.68;5.68;;;;;;;25.37;60.02;99666.31;4316444;33;33099;-72
2023/08/19 04:08:39;;;;;;;8.68;5.80;;;;;;;25.35;60.16;99664.84;4308641;33;33351;-73
2023/08/19 04:11:08;;;;;;;10.90;6.45;;;;;;;25.29;60.31;99672.84;4314876;33;33544;-72
2023/08/19 04:13:35;;;;;;;8.27;5.35;;;;;;;25.22;60.38;99672.00;4318879;33;33801;-73
2023/08/19 04:16:05;;;;;;;8.98;4.45;;;;;;;25.26;60.45;99673.28;4313554;33;34969;-73
2023/08/19 04:18:33;;;;;;;8.43;5.20;;;;;;;25.28;60.54;99675.81;4317848;33;34026;-73
2023/08/19 04:21:03;;;;;;;7.65;5.70;;;;;;;25.33;60.29;99676.88;4311434;33;33732;-73
2023/08/19 04:23:32;;;;;;;9.27;5.87;;;;;;;25.29;60.41;99672.00;4305401;33;35035;-72
2023/08/19 04:26:00;;;;;;;8.65;5.53;;;;;;;25.30;60.32;99677.28;4314787;33;33924;-72
2023/08/19 04:28:28;;;;;;;7.43;5.55;;;;;;;25.36;60.04;99675.59;4315745;33;34784;-72
2023/08/19 04:31:07;;;;;;;8.23;5.45;;;;;;;25.41;59.98;99681.28;4314855;33;35143;-72
2023/08/19 04:33:36;;;;;;;9.43;4.87;;;;;;;25.45;59.79;99679.78;4316591;33;33883;-73
2023/08/19 04:36:04;;;;;;;7.90;4.45;;;;;;;25.48;59.81;99682.09;4306375;33;33770;-74
2023/08/19 04:38:32;;;;;;;8.35;4.80;;;;;;;25.55;59.67;99677.47;4313449;33;34084;-75
2023/08/19 04:41:00;;;;;;;9.68;4.55;;;;;;;25.63;59.76;99675.56;4310889;33;33506;-74
2023/08/19 04:43:29;;;;;;;10.75;4.55;;;;;;;25.54;60.27;99673.03;4313102;33;33577;-75
2023/08/19 04:45:56;;;;;;;10.38;5.93;;;;;;;25.73;59.99;99676.78;4311634;33;33737;-74
2023/08/19 04:48:25;;;;;;;8.63;5.55;;;;;;;25.88;59.75;99673.00;4304303;33;33404;-75
2023/08/19 04:50:53;;;;;;;9.93;4.90;;;;;;;25.94;59.66;99674.84;4312832;33;33519;-75
2023/08/19 04:53:20;;;;;;;7.62;5.05;;;;;;;25.98;59.20;99676.94;4310585;33;35231;-75
2023/08/19 04:55:48;;;;;;;7.37;5.18;;;;;;;26.01;59.04;99684.75;4310334;33;33709;-75
2023/08/19 04:58:15;;;;;;;8.35;5.70;;;;;;;26.03;59.19;99684.50;4310418;33;32976;-73
2023/08/19 05:00:43;;;;;;;10.38;7.22;;;;;;;26.04;59.37;99679.91;4300792;33;33462;-73
2023/08/19 05:03:11;;;;;;;8.93;6.57;;;;;;;25.98;59.64;99690.66;4325915;33;34676;-74
2023/08/19 05:05:40;;;;;;;7.72;5.75;;;;;;;26.11;59.24;99689.78;4321205;33;34650;-75
2023/08/19 05:08:08;;;;;;;15.25;6.47;;;;;;;26.17;59.26;99699.88;4315547;33;34132;-72
2023/08/19 05:10:35;;;;;;;9.07;5.93;;;;;;;26.19;59.36;99702.38;4324718;33;33636;-74
2023/08/19 05:13:03;;;;;;;8.15;5.35;;;;;;;26.22;59.35;99707.44;4323767;33;34115;-75
2023/08/19 05:15:31;;;;;;;12.45;7.00;;;;;;;26.21;59.13;99719.47;4330499;33;33462;-75
2023/08/19 05:17:59;;;;;;;9.18;6.68;;;;;;;26.16;59.02;99717.41;4331437;33;33302;-75
2023/08/19 05:20:27;;;;;;;10.80;7.85;;;;;;;26.17;59.03;99726.47;4331256;33;33778;-74
2023/08/19 05:22:54;;;;;;;10.40;7.07;;;;;;;26.18;59.09;99734.47;4330310;33;33959;-75
2023/08/19 05:25:22;;;;;;;15.50;6.53;;;;;;;26.25;59.10;99734.44;4331235;33;33728;-75
2023/08/19 05:27:50;;;;;;;11.05;7.97;;;;;;;26.24;59.48;99736.34;4331034;33;34603;-75
2023/08/19 05:30:18;;;;;;;10.15;7.22;;;;;;;26.32;59.55;99739.91;4329454;33;32444;-75
2023/08/19 05:32:45;;;;;;;9.27;6.65;;;;;;;26.37;59.49;99743.69;4330692;33;33396;-75
2023/08/19 05:35:13;;;;;;;11.15;6.45;;;;;;;26.54;59.26;99745.97;4331176;33;34031;-73
2023/08/19 05:37:42;;;;;;;12.15;7.95;;;;;;;26.57;59.36;99749.09;4330267;33;33112;-72
2023/08/19 05:40:10;;;;;;;11.73;7.07;;;;;;;26.53;59.54;99745.12;4325218;33;33434;-72
2023/08/19 05:42:37;;;;;;;13.05;6.43;;;;;;;26.61;59.14;99750.37;4330211;33;34328;-72
2023/08/19 05:45:05;;;;;;;8.82;6.32;;;;;;;26.64;59.12;99755.41;4330055;33;33802;-72
2023/08/19 05:47:33;;;;;;;9.48;6.35;;;;;;;26.59;59.33;99762.63;4331496;33;34203;-72
2023/08/19 05:50:01;;;;;;;9.63;6.90;;;;;;;26.67;58.86;99765.94;4330379;33;34749;-72
2023/08/19 05:52:29;;;;;;;9.40;5.43;;;;;;;26.73;58.87;99771.63;4330417;33;34711;-72
2023/08/19 05:54:57;;;;;;;8.60;5.55;;;;;;;26.81;58.68;99769.47;4329351;33;34006;-72
2023/08/19 05:57:27;;;;;;;9.15;5.65;;;;;;;26.86;58.40;99782.53;4329938;33;33160;-72
2023/08/19 05:59:55;;;;;;;8.00;5.20;;;;;;;26.60;59.17;99789.00;4330534;33;33926;-72
2023/08/19 06:02:23;;;;;;;9.75;6.75;;;;;;;26.77;58.75;99809.38;4325911;33;33821;-72
2023/08/19 06:04:50;;;;;;;9.70;7.47;;;;;;;25.86;62.03;99820.41;4330975;33;33995;-74
2023/08/19 06:07:25;;;;;;;11.02;8.20;;;;;;;26.38;60.47;99813.13;4329768;33;33719;-74
2023/08/19 06:09:53;;;;;;;14.50;9.15;;;;;;;25.23;64.32;99832.59;4330490;33;33881;-72
2023/08/19 06:12:20;;;;;;;15.95;9.52;;;;;;;25.40;64.19;99830.28;4325447;33;33853;-72
2023/08/19 06:14:48;;;;;;;17.17;12.70;;;;;;;24.54;68.00;99847.25;4325755;33;34783;-77
2023/08/19 06:17:16;;;;;;;18.83;13.98;;;;;;;24.88;67.05;99829.09;4325132;33;34580;-76
2023/08/19 06:19:44;;;;;;;15.35;11.60;;;;;;;24.57;67.74;99854.22;4328692;33;34802;-76
2023/08/19 06:22:11;;;;;;;12.40;9.52;;;;;;;24.34;68.55;99855.34;4331278;33;33669;-77
2023/08/19 06:24:39;;;;;;;14.43;10.35;;;;;;;24.60;67.84;99859.28;4320692;33;34412;-76
2023/08/19 06:27:06;;;;;;;14.00;8.43;;;;;;;24.55;67.97;99873.56;4329282;33;34035;-75
2023/08/19 06:29:34;;;;;;;22.30;7.97;;;;;;;24.89;66.02;99880.03;4329015;33;34708;-75
2023/08/19 06:32:02;;;;;;;14.48;8.57;;;;;;;25.17;65.14;99888.19;4324544;33;34889;-75
2023/08/19 06:34:30;;;;;;;15.65;11.77;;;;;;;25.10;64.88;99898.22;4327380;33;34513;-77
2023/08/19 06:37:00;;;;;;;13.52;8.77;;;;;;;24.43;67.59;99908.03;4318350;33;33262;-77
2023/08/19 06:39:28;;;;;;;16.52;9.68;;;;;;;24.10;68.22;99911.31;4326990;33;33787;-77
2023/08/19 06:42:02;;;;;;;14.82;9.25;;;;;;;23.42;71.22;99920.97;4332451;33;35038;-74
2023/08/19 06:44:33;;;;;;;13.55;9.38;;;;;;;23.69;70.26;99922.97;4325812;33;33517;-75
2023/08/19 06:47:02;;;;;;;18.35;9.85;;;;;;;23.71;69.95;99942.72;4326318;33;34226;-76
2023/08/19 06:49:31;;;;;;;15.23;9.15;;;;;;;23.76;69.81;99939.44;4328626;33;33715;-75
2023/08/19 06:51:59;;;;;;;15.38;8.18;;;;;;;24.20;68.37;99948.41;4331767;33;33924;-75
2023/08/19 06:54:26;;;;;;;12.98;9.20;;;;;;;23.89;69.28;99953.22;4329411;33;33852;-76
2023/08/19 06:57:05;;;;;;;14.18;7.85;;;;;;;24.48;67.23;99962.97;4329550;33;33460;-73
2023/08/19 06:59:36;;;;;;;9.35;5.55;;;;;;;24.35;68.77;99963.69;4326102;33;34024;-73
2023/08/19 07:02:04;;;;;;;8.23;5.03;;;;;;;23.85;69.34;99967.44;4322770;33;33643;-73
2023/08/19 07:04:33;;;;;;;9.25;5.32;;;;;;;23.97;68.99;99967.78;4319776;33;34985;-74
2023/08/19 07:07:04;;;;;;;9.73;4.10;;;;;;;24.29;66.67;99967.22;4324122;33;33145;-74
2023/08/19 07:09:34;;;;;;;9.63;3.03;;;;;;;24.24;66.06;99975.19;4327832;33;33840;-74
2023/08/19 07:12:02;;;;;;;10.63;4.62;;;;;;;24.18;66.86;99986.91;4330410;33;34731;-74
2023/08/19 07:14:30;;;;;;;8.50;4.20;;;;;;;24.35;65.94;99996.50;4329171;33;33428;-74
2023/08/19 07:16:59;;;;;;;7.53;4.95;;;;;;;24.62;65.45;99994.88;4330549;33;32957;-73
2023/08/19 07:19:34;;;;;;;8.70;4.12;;;;;;;24.69;65.98;100003.13;4331527;33;33769;-74
2023/08/19 07:22:02;;;;;;;9.60;5.28;;;;;;;24.78;64.98;100003.78;4326415;33;34888;-73
2023/08/19 07:24:31;;;;;;;9.63;5.45;;;;;;;24.74;65.67;100013.44;4330832;33;33661;-73
2023/08/19 07:27:04;;;;;;;7.95;5.07;;;;;;;24.10;68.14;100003.44;4325064;33;34355;-74
2023/08/19 07:29:32;;;;;;;9.45;5.40;;;;;;;24.43;67.51;100011.09;4329409;33;33878;-72
2023/08/19 07:31:59;;;;;;;7.75;5.20;;;;;;;24.60;67.45;100015.25;4330869;33;34664;-73
2023/08/19 07:34:28;;;;;;;10.60;6.43;;;;;;;24.52;67.86;100005.28;4314332;33;33657;-73
2023/08/19 07:36:56;;;;;;;7.37;4.93;;;;;;;24.48;67.86;100004.00;4313443;33;35003;-73
2023/08/19 07:39:25;;;;;;;8.52;4.28;;;;;;;24.50;67.86;100009.31;4315357;33;34063;-74
2023/08/19 07:41:53;;;;;;;12.40;5.80;;;;;;;24.67;67.15;100009.84;4313834;33;34451;-74
2023/08/19 07:44:21;;;;;;;10.35;5.22;;;;;;;24.76;67.01;99992.22;4313769;33;33809;-73
2023/08/19 07:46:49;;;;;;;8.43;4.43;;;;;;;24.81;67.13;99989.69;4314062;33;33256;-73
2023/08/19 07:49:16;;;;;;;12.93;5.60;;;;;;;24.88;66.84;99979.66;4317903;33;33956;-74
2023/08/19 07:51:45;;;;;;;7.47;4.32;;;;;;;24.84;66.96;99976.44;4311857;33;35196;-72
2023/08/19 07:54:14;;;;;;;9.52;4.22;;;;;;;24.97;66.58;99980.31;4316240;33;34537;-73
2023/08/19 07:56:42;;;;;;;8.80;5.35;;;;;;;25.00;65.53;99975.28;4319647;33;32960;-73
2023/08/19 07:59:10;;;;;;;10.52;6.37;;;;;;;24.90;65.22;99977.53;4314481;33;33545;-74
2023/08/19 08:01:37;;;;;;;9.35;5.32;;;;;;;24.84;65.64;99981.94;4308042;33;32320;-73
2023/08/19 08:04:05;;;;;;;13.15;4.82;;;;;;;24.95;65.77;99977.78;4300765;33;33858;-73
2023/08/19 08:06:33;;;;;;;9.93;5.00;;;;;;;24.99;65.53;99973.59;4328342;33;33521;-75
2023/08/19 08:09:01;;;;;;;9.30;5.07;;;;;;;25.02;65.26;99967.72;4330384;33;33492;-74
2023/08/19 08:11:29;;;;;;;13.50;5.70;;;;;;;25.04;65.39;99970.22;4324393;33;35335;-75
2023/08/19 08:13:57;;;;;;;8.05;4.75;;;;;;;25.07;65.78;99962.47;4326093;33;33976;-75
2023/08/19 08:16:24;;;;;;;7.75;5.18;;;;;;;25.12;66.22;99961.91;4325054;33;33241;-75
2023/08/19 08:18:52;;;;;;;8.98;5.43;;;;;;;25.15;65.83;99947.78;4329358;33;33935;-74
2023/08/19 08:21:20;;;;;;;8.52;5.07;;;;;;;25.17;65.63;99947.56;4331158;33;33944;-74
2023/08/19 08:23:49;;;;;;;12.07;5.62;;;;;;;25.24;65.67;99940.25;4330255;33;34065;-76
2023/08/19 08:26:17;;;;;;;9.90;5.57;;;;;;;25.20;65.94;99944.44;4328569;33;34363;-74
2023/08/19 08:28:44;;;;;;;8.30;4.97;;;;;;;25.31;65.57;99933.72;4327013;33;35358;-74
2023/08/19 08:31:12;;;;;;;7.15;4.40;;;;;;;25.33;65.65;99933.53;4329554;33;33876;-75
2023/08/19 08:33:40;;;;;;;11.02;6.32;;;;;;;25.40;65.50;99919.84;4330512;33;33706;-75
2023/08/19 08:36:08;;;;;;;9.23;5.05;;;;;;;25.32;65.73;99909.91;4329219;33;34121;-76
2023/08/19 08:38:35;;;;;;;7.87;5.62;;;;;;;25.23;66.07;99902.94;4330210;33;34733;-74
2023/08/19 08:41:04;;;;;;;10.20;5.15;;;;;;;25.19;66.38;99897.03;4328231;33;33918;-77
2023/08/19 08:43:33;;;;;;;8.38;5.47;;;;;;;25.33;65.86;99898.75;4329366;33;33989;-75
2023/08/19 08:46:01;;;;;;;7.55;5.30;;;;;;;25.39;65.79;99890.75;4328835;33;33585;-75
2023/08/19 08:48:31;;;;;;;7.82;4.82;;;;;;;25.27;66.39;99887.78;4334802;33;33592;-74
2023/08/19 08:50:59;;;;;;;9.02;5.05;;;;;;;24.94;66.93;99880.25;4329186;33;35341;-76
2023/08/19 08:53:27;;;;;;;6.70;4.62;;;;;;;25.23;66.14;99878.28;4328369;33;33807;-74
2023/08/19 08:55:55;;;;;;;8.88;6.18;;;;;;;25.10;66.93;99876.31;4317316;33;33465;-75
2023/08/19 08:58:23;;;;;;;7.28;5.15;;;;;;;25.10;66.43;99862.63;4325348;33;34454;-76
2023/08/19 09:00:50;;;;;;;7.47;4.55;;;;;;;25.01;66.56;99850.19;4321240;33;33778;-76
2023/08/19 09:03:24;;;;;;;9.93;4.32;;;;;;;25.18;65.98;99847.94;4324363;33;33627;-78
2023/08/19 09:05:57;;;;;;;9.13;4.62;;;;;;;25.17;66.02;99838.88;4321197;33;33045;-77
2023/08/19 09:08:31;;;;;;;7.22;4.20;;;;;;;24.99;66.37;99847.66;4324730;33;33720;-78
2023/08/19 09:11:02;;;;;;;8.40;4.03;;;;;;;25.16;65.54;99847.28;4324882;33;35023;-79
2023/08/19 09:13:30;;;;;;;9.88;4.90;;;;;;;25.24;65.31;99845.22;4326937;33;33128;-79
2023/08/19 09:15:58;;;;;;;9.48;5.30;;;;;;;25.24;66.01;99838.91;4313635;33;34266;-79
2023/08/19 09:18:26;;;;;;;6.22;4.47;;;;;;;24.99;66.66;99831.22;4327331;33;33703;-76
2023/08/19 09:20:54;;;;;;;7.20;4.35;;;;;;;25.20;66.12;99835.75;4327969;33;33558;-78
2023/08/19 09:23:21;;;;;;;8.68;5.90;;;;;;;25.32;65.66;99833.22;4313664;33;33897;-78
2023/08/19 09:25:49;;;;;;;6.57;3.50;;;;;;;25.26;65.78;99834.03;4329018;33;33956;-79
2023/08/19 09:28:17;;;;;;;7.32;4.15;;;;;;;25.40;65.37;99848.63;4329306;33;35039;-77
2023/08/19 09:30:47;;;;;;;8.43;5.78;;;;;;;25.33;66.24;99841.22;4327162;33;32641;-79
2023/08/19 09:33:20;;;;;;;6.82;3.55;;;;;;;25.28;66.57;99841.00;4327379;33;35085;-77
2023/08/19 09:35:56;;;;;;;8.98;5.37;;;;;;;25.53;65.53;99843.16;4326951;33;34107;-76
2023/08/19 09:38:26;;;;;;;9.00;5.55;;;;;;;25.56;65.37;99840.84;4326647;33;35249;-78
2023/08/19 09:41:03;;;;;;;7.03;4.50;;;;;;;25.55;65.32;99843.75;4328006;33;33776;-77
2023/08/19 09:43:31;;;;;;;7.32;3.55;;;;;;;25.42;65.80;99844.59;4328092;33;33746;-75
2023/08/19 09:45:59;;;;;;;7.90;4.15;;;;;;;25.52;65.69;99844.19;4329081;33;33176;-76
2023/08/19 09:48:27;;;;;;;7.93;4.72;;;;;;;25.49;65.02;99855.56;4325756;33;34647;-77
2023/08/19 09:50:54;;;;;;;7.90;4.37;;;;;;;25.27;65.07;99854.91;4326826;33;34185;-76
2023/08/19 09:53:22;;;;;;;9.50;4.47;;;;;;;25.26;65.21;99855.94;4325363;33;34018;-76
2023/08/19 09:55:50;;;;;;;8.02;4.60;;;;;;;25.32;65.55;99871.56;4327877;33;33026;-78
2023/08/19 09:58:18;;;;;;;9.23;4.05;;;;;;;25.05;67.03;99868.72;4327109;33;33638;-78
2023/08/19 10:00:46;;;;;;;13.48;4.62;;;;;;;25.14;66.62;99860.38;4325910;33;33279;-76
2023/08/19 10:03:16;;;;;;;5.87;3.05;;;;;;;25.36;65.70;99863.75;4325722;33;34993;-75
2023/08/19 10:05:44;;;;;;;11.48;5.22;;;;;;;25.43;65.66;99861.91;4327212;33;34159;-76
2023/08/19 10:08:18;;;;;;;9.07;3.92;;;;;;;25.42;66.05;99861.03;4309265;33;34771;-77
2023/08/19 10:10:46;;;;;;;10.73;5.17;;;;;;;25.27;66.95;99863.97;4311240;33;32611;-77
2023/08/19 10:13:15;;;;;;;7.82;4.62;;;;;;;25.42;66.31;99868.41;4296759;33;34746;-76
2023/08/19 10:15:43;;;;;;;9.27;4.95;;;;;;;25.49;66.48;99875.62;4308236;33;34001;-76
2023/08/19 10:18:19;;;;;;;9.65;4.90;;;;;;;25.60;66.59;99862.34;4318669;33;33603;-77
2023/08/19 10:20:50;;;;;;;8.90;5.53;;;;;;;25.72;66.77;99863.41;4307045;33;34858;-77
2023/08/19 10:23:19;;;;;;;11.48;6.93;;;;;;;25.81;66.70;99859.44;4311849;33;35117;-79
2023/08/19 10:25:47;;;;;;;12.13;6.12;;;;;;;25.82;66.86;99857.53;4309747;33;33268;-78
2023/08/19 10:28:25;;;;;;;8.90;5.03;;;;;;;25.89;66.78;99858.38;4313413;33;34570;-78
2023/08/19 10:31:13;;;;;;;11.23;5.62;;;;;;;25.93;66.65;99862.38;4310641;33;33884;-74
2023/08/19 10:33:43;;;;;;;8.13;5.28;;;;;;;25.94;66.33;99864.91;4307901;33;35070;-74
2023/08/19 10:36:18;;;;;;;10.73;6.78;;;;;;;26.02;65.88;99856.44;4312088;33;33193;-75
2023/08/19 10:38:54;;;;;;;10.50;6.32;;;;;;;25.90;66.03;99863.63;4267636;33;33296;-74
2023/08/19 10:41:33;;;;;;;9.20;5.68;;;;;;;26.01;65.90;99862.16;4265598;33;33991;-75
2023/08/19 10:44:11;;;;;;;10.23;5.35;;;;;;;26.10;65.84;99857.28;4263111;33;33868;-74
2023/08/19 10:46:45;;;;;;;10.15;7.05;;;;;;;26.21;65.80;99853.91;4274695;33;32651;-75
2023/08/19 10:49:14;;;;;;;8.38;5.12;;;;;;;26.22;66.06;99861.91;4282036;33;33439;-75
2023/08/19 10:52:00;;;;;;;11.88;5.57;;;;;;;26.29;65.39;99856.41;4280582;33;33941;-76
2023/08/19 10:54:41;;;;;;;7.85;5.72;;;;;;;26.29;64.89;99861.03;4280957;33;33968;-75
2023/08/19 10:57:22;;;;;;;8.07;5.78;;;;;;;26.34;65.42;99859.34;4281947;33;33117;-75
2023/08/19 10:59:54;;;;;;;9.75;5.72;;;;;;;26.42;65.34;99861.00;4283750;33;34253;-76
2023/08/19 11:02:22;;;;;;;7.57;5.60;;;;;;;26.40;65.08;99854.91;4280272;33;36046;-75
2023/08/19 11:04:50;;;;;;;8.93;5.57;;;;;;;26.23;65.02;99849.88;4285176;33;35377;-75
2023/08/19 11:07:19;;;;;;;9.82;6.12;;;;;;;26.41;65.04;99846.44;4284506;33;33619;-75
2023/08/19 11:09:49;;;;;;;8.07;5.45;;;;;;;26.62;65.10;99850.88;4303482;33;34750;-75
2023/08/19 11:12:17;;;;;;;10.00;6.78;;;;;;;26.56;66.62;99845.41;4329342;33;34307;-75
2023/08/19 11:14:47;;;;;;;8.30;5.20;;;;;;;26.48;66.08;99852.81;4329659;33;33508;-75
2023/08/19 11:17:16;;;;;;;7.03;5.45;;;;;;;26.54;66.88;99850.25;4325772;33;31922;-75
2023/08/19 11:19:46;;;;;;;9.13;5.60;;;;;;;27.08;65.93;99841.56;4327997;33;32540;-75
2023/08/19 11:22:16;;;;;;;8.73;5.87;;;;;;;27.25;65.17;99841.91;4326463;33;34938;-76
2023/08/19 11:24:44;;;;;;;7.68;5.62;;;;;;;27.54;64.99;99834.09;4330111;33;32522;-75
2023/08/19 11:27:12;;;;;;;9.27;4.78;;;;;;;27.60;64.26;99828.53;4329677;33;33450;-75
2023/08/19 11:29:39;;;;;;;7.35;4.47;;;;;;;27.73;61.89;99830.34;4317070;33;33777;-76
2023/08/19 11:32:08;;;;;;;6.45;4.75;;;;;;;27.86;58.77;99833.03;4326942;33;33884;-76
2023/08/19 11:34:35;;;;;;;7.85;4.95;;;;;;;27.97;58.24;99836.09;4307675;33;34127;-76
2023/08/19 11:37:04;;;;;;;8.93;6.15;;;;;;;28.05;58.82;99825.63;4310294;33;33930;-76
2023/08/19 11:39:32;;;;;;;7.30;5.25;;;;;;;27.97;58.84;99827.84;4307732;33;34534;-74